Troy, Pennsylvania
Current Conditions -  °F | °C
As of 12:53 PM on Friday 21 Nov 2014 (Local Time) from KELM Reporting Station
Overcast Overcast  
Wind Chill: 19°   Ceiling: 4400
Heat Index: 29°   Visibility: 10mi
Dew Point: 14°   Wind: 13mph
Humidity: 54%   Direction: 290°WNW
Pressure: 30.34"   Gusts: NA
Location:  41.79°N, 76.79°W
Report Text: KELM 211753Z 29011KT 10SM BKN044 OVC050 M02/M10 A3034 RMK AO2 SLP287 60000 T10171100 11017 21072 51014
Loading
Personal Weather Stations






























Interactive Weather Map New forecast layout! Learn more

10-Day Weather Forecast

Advertisements
Track Severe Weather on mobile